createdAt,value
2023-01-18T00:10:04.021Z,17.00
2023-01-18T00:12:30.754Z,17.30
2023-01-18T00:14:57.417Z,18.40
2023-01-18T00:17:24.129Z,18.00
2023-01-18T00:19:50.797Z,18.30
2023-01-18T00:22:17.483Z,18.00
2023-01-18T00:24:44.091Z,18.20
2023-01-18T00:27:10.791Z,17.80
2023-01-18T00:29:37.425Z,16.70
2023-01-18T00:32:04.550Z,16.50
2023-01-18T00:34:31.618Z,16.20
2023-01-18T00:36:58.336Z,15.60
2023-01-18T00:39:24.963Z,14.70
2023-01-18T00:42:10.499Z,14.70
2023-01-18T00:44:37.282Z,14.40
2023-01-18T00:47:03.959Z,14.40
2023-01-18T00:49:30.679Z,13.80
2023-01-18T00:51:58.789Z,13.80
2023-01-18T00:54:25.575Z,13.80
2023-01-18T00:56:52.225Z,13.80
2023-01-18T00:59:18.965Z,12.90
2023-01-18T01:01:45.707Z,13.10
2023-01-18T01:04:31.556Z,13.30
2023-01-18T01:06:58.218Z,12.70
2023-01-18T01:09:26.154Z,13.30
2023-01-18T01:12:12.155Z,13.00
2023-01-18T01:15:00.027Z,12.60
2023-01-18T01:17:46.809Z,11.90
2023-01-18T01:20:32.309Z,12.80
2023-01-18T01:23:27.000Z,12.30
2023-01-18T01:26:09.170Z,12.10
2023-01-18T01:28:39.906Z,12.40
2023-01-18T01:31:08.278Z,12.10
2023-01-18T01:33:35.610Z,12.30
2023-01-18T01:36:04.878Z,12.70
2023-01-18T01:38:31.722Z,12.10
2023-01-18T01:41:08.992Z,11.60
2023-01-18T01:43:49.149Z,12.40
2023-01-18T01:46:25.869Z,11.20
2023-01-18T01:48:57.601Z,11.80
2023-01-18T01:51:24.328Z,12.00
2023-01-18T01:53:51.030Z,12.00
2023-01-18T01:56:18.771Z,11.10
2023-01-18T01:58:45.562Z,11.30
2023-01-18T02:01:12.324Z,11.20
2023-01-18T02:03:39.399Z,11.20
2023-01-18T02:06:24.736Z,11.00
2023-01-18T02:08:51.445Z,11.00
2023-01-18T02:11:18.068Z,11.10
2023-01-18T02:13:44.753Z,10.70
2023-01-18T02:16:34.181Z,11.20
2023-01-18T02:19:25.917Z,11.40
2023-01-18T02:21:56.236Z,10.90
2023-01-18T02:24:32.321Z,11.60
2023-01-18T02:27:22.439Z,11.40
2023-01-18T02:30:10.135Z,11.50
2023-01-18T02:33:03.403Z,11.10
2023-01-18T02:35:54.571Z,10.80
2023-01-18T02:38:41.998Z,10.80
2023-01-18T02:41:21.990Z,11.70
2023-01-18T02:44:08.804Z,11.00
2023-01-18T02:46:35.882Z,11.30
2023-01-18T02:49:18.021Z,10.70
2023-01-18T02:51:44.701Z,11.00
2023-01-18T02:54:11.854Z,11.10
2023-01-18T02:56:42.672Z,10.90
2023-01-18T02:59:18.475Z,11.20
2023-01-18T03:01:59.138Z,10.90
2023-01-18T03:04:37.188Z,11.20
2023-01-18T03:56:52.929Z,12.70
2023-01-18T03:59:19.640Z,13.50
2023-01-18T04:01:48.239Z,13.70
2023-01-18T04:04:15.124Z,13.20
2023-01-18T04:06:42.495Z,12.40
2023-01-18T04:09:09.467Z,12.20
2023-01-18T04:11:36.310Z,12.70
2023-01-18T04:14:02.974Z,11.90
2023-01-18T04:16:29.630Z,11.40
2023-01-18T04:18:56.297Z,11.90
2023-01-18T04:21:23.095Z,11.10
2023-01-18T04:23:49.745Z,11.70
2023-01-18T04:26:19.347Z,11.40
2023-01-18T04:28:46.135Z,10.70
2023-01-18T04:31:12.790Z,10.70
2023-01-18T04:33:39.553Z,10.20
2023-01-18T04:36:06.906Z,10.80
2023-01-18T04:38:33.549Z,10.20
2023-01-18T04:41:06.549Z,10.40
2023-01-18T04:43:33.256Z,10.50
2023-01-18T04:46:00.221Z,10.10
2023-01-18T04:48:26.886Z,10.50
2023-01-18T04:50:53.557Z,10.70
2023-01-18T04:53:20.532Z,10.90
2023-01-18T04:55:47.213Z,10.80
2023-01-18T04:58:15.103Z,10.10
2023-01-18T05:00:41.909Z,9.90
2023-01-18T05:03:09.656Z,10.10
2023-01-18T05:05:36.589Z,9.50
2023-01-18T05:08:03.634Z,10.00
2023-01-18T05:10:30.453Z,9.80
2023-01-18T05:12:57.691Z,9.60
2023-01-18T05:15:24.503Z,9.70
2023-01-18T05:17:51.204Z,9.00
2023-01-18T05:20:18.070Z,9.30
2023-01-18T05:22:44.833Z,9.60
2023-01-18T05:25:11.471Z,9.00
2023-01-18T05:27:38.265Z,9.00
2023-01-18T05:30:06.846Z,9.20
2023-01-18T05:32:33.724Z,9.20
2023-01-18T05:35:00.416Z,8.90
2023-01-18T05:37:27.057Z,9.30
2023-01-18T05:39:53.705Z,9.20
2023-01-18T05:42:20.446Z,9.10
2023-01-18T05:44:47.117Z,9.40
2023-01-18T05:47:13.863Z,9.80
2023-01-18T05:49:41.943Z,9.90
2023-01-18T05:52:08.741Z,9.40
2023-01-18T05:54:35.396Z,9.70
2023-01-18T05:57:02.421Z,9.90
2023-01-18T05:59:29.140Z,9.80
2023-01-18T06:01:56.711Z,9.60
2023-01-18T06:04:23.539Z,9.80
2023-01-18T06:06:50.328Z,9.80
2023-01-18T06:09:17.057Z,10.00
2023-01-18T06:11:43.783Z,10.10
2023-01-18T06:14:10.440Z,10.10
2023-01-18T06:16:37.106Z,10.40
2023-01-18T06:19:03.822Z,10.30
2023-01-18T06:21:30.445Z,10.10
2023-01-18T06:23:57.222Z,10.10
2023-01-18T08:14:51.877Z,11.70
2023-01-18T08:17:18.700Z,11.60
2023-01-18T08:19:45.650Z,10.40
2023-01-18T08:22:12.285Z,10.80
2023-01-18T08:24:38.939Z,9.90
2023-01-18T08:27:05.590Z,10.20
2023-01-18T08:29:32.207Z,9.70
2023-01-18T08:32:00.798Z,9.60
2023-01-18T08:34:27.455Z,9.30
2023-01-18T08:36:54.119Z,8.90
2023-01-18T08:39:21.127Z,9.40
2023-01-18T08:41:49.572Z,9.40
2023-01-18T08:44:16.388Z,9.30
2023-01-18T08:46:43.091Z,8.80
2023-01-18T08:49:10.410Z,8.90
2023-01-18T08:51:37.175Z,8.70
2023-01-18T08:54:06.613Z,8.50
2023-01-18T08:56:33.351Z,8.70
2023-01-18T08:59:02.519Z,8.70
2023-01-18T09:01:29.608Z,8.40
2023-01-18T09:03:56.619Z,8.90
2023-01-18T09:06:23.538Z,9.00
2023-01-18T09:08:50.277Z,8.40
2023-01-18T09:11:17.499Z,8.50
2023-01-18T09:13:59.472Z,8.30
2023-01-18T09:16:27.480Z,8.70
2023-01-18T09:18:56.325Z,8.40
2023-01-18T09:21:23.252Z,8.40
2023-01-18T09:23:51.048Z,8.30
2023-01-18T09:26:20.437Z,8.40
2023-01-18T09:28:48.819Z,7.70
2023-01-18T09:31:15.720Z,8.10
2023-01-18T09:33:51.213Z,8.40
2023-01-18T09:36:21.544Z,8.30
2023-01-18T09:38:48.410Z,8.30
2023-01-18T16:20:54.591Z,7.30
2023-01-18T16:23:23.131Z,7.10
2023-01-18T16:26:02.495Z,6.70
2023-01-18T16:28:29.309Z,6.80
2023-01-18T16:30:56.242Z,6.30
2023-01-18T16:33:23.855Z,5.90
2023-01-18T16:35:50.823Z,5.50
2023-01-18T16:38:18.885Z,5.70
2023-01-18T16:40:48.678Z,5.80
2023-01-18T16:43:26.876Z,5.30
2023-01-18T16:45:55.189Z,5.40
2023-01-18T16:48:23.360Z,5.50
2023-01-18T16:50:50.177Z,5.20
2023-01-18T16:53:17.662Z,5.10
2023-01-18T16:55:44.983Z,5.10
2023-01-18T16:58:15.641Z,4.90
2023-01-18T17:00:59.176Z,5.20
2023-01-18T17:03:26.188Z,5.10
2023-01-18T17:05:53.234Z,4.50
2023-01-18T17:08:19.927Z,4.90
2023-01-18T17:10:47.667Z,4.60
2023-01-18T17:13:14.590Z,4.50
2023-01-18T17:15:41.888Z,4.70
2023-01-18T17:18:13.558Z,4.60
2023-01-18T17:20:40.337Z,4.60
2023-01-18T17:23:07.053Z,4.50
2023-01-18T17:25:33.970Z,4.70
2023-01-18T17:28:01.056Z,4.50
2023-01-18T17:30:27.993Z,4.50
2023-01-18T17:32:54.944Z,4.10
2023-01-18T17:35:22.921Z,4.60
2023-01-18T17:37:54.581Z,4.40
2023-01-18T17:40:38.660Z,4.10
2023-01-18T22:11:03.542Z,7.30
2023-01-18T22:13:30.265Z,7.20
2023-01-18T22:15:56.953Z,6.40
2023-01-18T22:18:23.613Z,6.50
2023-01-18T22:20:56.576Z,6.60
2023-01-18T22:23:23.307Z,6.40
2023-01-18T22:25:54.145Z,5.60
2023-01-18T22:28:20.904Z,7.10
2023-01-18T22:30:47.974Z,6.40
2023-01-18T22:33:14.832Z,6.20
2023-01-18T22:35:41.479Z,5.60
2023-01-18T22:38:09.775Z,4.70
2023-01-18T22:40:36.533Z,3.70
2023-01-18T22:43:03.572Z,4.00
2023-01-18T22:45:30.240Z,3.80
2023-01-18T22:47:57.028Z,3.90
2023-01-18T22:50:23.850Z,5.60
2023-01-18T22:52:50.680Z,5.30
2023-01-18T22:55:17.378Z,4.70
2023-01-18T22:57:44.021Z,7.90
2023-01-18T23:00:11.427Z,4.30
2023-01-18T23:02:38.335Z,3.20
2023-01-18T23:05:05.498Z,3.10
2023-01-18T23:07:32.212Z,3.60
2023-01-18T23:09:58.868Z,3.90
2023-01-18T23:12:25.525Z,5.00
2023-01-18T23:15:11.033Z,4.90
2023-01-18T23:17:40.583Z,4.90
2023-01-18T23:20:10.510Z,4.80
2023-01-18T23:22:37.609Z,5.10
2023-01-18T23:25:04.565Z,6.90
2023-01-18T23:27:31.317Z,7.60
2023-01-18T23:29:58.944Z,6.00
2023-01-18T23:32:26.631Z,3.80
2023-01-18T23:34:54.092Z,3.40
2023-01-18T23:37:20.938Z,3.50
2023-01-18T23:40:06.554Z,4.50
2023-01-18T23:42:51.897Z,3.60
2023-01-18T23:45:37.416Z,3.30
2023-01-18T23:48:41.331Z,3.40
2023-01-18T23:51:27.961Z,3.40
2023-01-18T23:54:15.424Z,4.00
2023-01-18T23:56:43.285Z,6.80
2023-01-18T23:59:10.089Z,5.40
